sensor_id;sensor_type;location;lat;lon;timestamp;temperature;humidity
2657;DHT22;1338;48.176;11.792;2023-02-11T00:00:39;-3.60;1.00
2657;DHT22;1338;48.176;11.792;2023-02-11T00:03:08;-3.60;1.00
2657;DHT22;1338;48.176;11.792;2023-02-11T00:05:36;-3.70;1.00
2657;DHT22;1338;48.176;11.792;2023-02-11T00:08:06;-3.60;1.00
2657;DHT22;1338;48.176;11.792;2023-02-11T00:10:34;-3.70;1.00
2657;DHT22;1338;48.176;11.792;2023-02-11T00:13:02;-4.00;1.00
2657;DHT22;1338;48.176;11.792;2023-02-11T00:15:30;-4.10;1.00
2657;DHT22;1338;48.176;11.792;2023-02-11T00:17:58;-4.30;1.00
2657;DHT22;1338;48.176;11.792;2023-02-11T00:20:27;-4.40;1.00
2657;DHT22;1338;48.176;11.792;2023-02-11T00:22:55;-4.30;1.00
2657;DHT22;1338;48.176;11.792;2023-02-11T00:25:24;-4.30;1.00
2657;DHT22;1338;48.176;11.792;2023-02-11T00:27:52;-4.30;1.00
2657;DHT22;1338;48.176;11.792;2023-02-11T00:30:21;-4.20;1.00
2657;DHT22;1338;48.176;11.792;2023-02-11T00:32:49;-4.20;1.00
2657;DHT22;1338;48.176;11.792;2023-02-11T00:35:17;-4.30;1.00
2657;DHT22;1338;48.176;11.792;2023-02-11T00:37:45;-4.20;1.00
2657;DHT22;1338;48.176;11.792;2023-02-11T00:40:14;-4.10;1.00
2657;DHT22;1338;48.176;11.792;2023-02-11T00:42:43;-4.20;1.00
2657;DHT22;1338;48.176;11.792;2023-02-11T00:45:12;-4.00;1.00
2657;DHT22;1338;48.176;11.792;2023-02-11T00:47:40;-4.00;1.00
2657;DHT22;1338;48.176;11.792;2023-02-11T00:50:08;-3.80;1.00
2657;DHT22;1338;48.176;11.792;2023-02-11T00:52:36;-3.80;1.00
2657;DHT22;1338;48.176;11.792;2023-02-11T00:55:05;-3.80;1.00
2657;DHT22;1338;48.176;11.792;2023-02-11T00:57:34;-4.00;1.00
2657;DHT22;1338;48.176;11.792;2023-02-11T01:00:04;-3.80;1.00
2657;DHT22;1338;48.176;11.792;2023-02-11T01:02:32;-3.80;1.00
2657;DHT22;1338;48.176;11.792;2023-02-11T01:05:00;-3.60;1.00
2657;DHT22;1338;48.176;11.792;2023-02-11T01:07:29;-3.60;1.00
2657;DHT22;1338;48.176;11.792;2023-02-11T01:09:57;-3.60;1.00
2657;DHT22;1338;48.176;11.792;2023-02-11T01:12:28;-3.50;1.00
2657;DHT22;1338;48.176;11.792;2023-02-11T01:14:57;-3.40;1.00
2657;DHT22;1338;48.176;11.792;2023-02-11T01:17:26;-3.40;1.00
2657;DHT22;1338;48.176;11.792;2023-02-11T01:19:55;-3.40;1.00
2657;DHT22;1338;48.176;11.792;2023-02-11T01:22:23;-3.50;1.00
2657;DHT22;1338;48.176;11.792;2023-02-11T01:24:51;-3.50;1.00
2657;DHT22;1338;48.176;11.792;2023-02-11T01:27:19;-3.50;1.00
2657;DHT22;1338;48.176;11.792;2023-02-11T01:29:47;-3.50;1.00
2657;DHT22;1338;48.176;11.792;2023-02-11T01:32:16;-3.50;1.00
2657;DHT22;1338;48.176;11.792;2023-02-11T01:34:46;-3.60;1.00
2657;DHT22;1338;48.176;11.792;2023-02-11T01:37:14;-3.60;1.00
2657;DHT22;1338;48.176;11.792;2023-02-11T01:39:42;-3.50;1.00
2657;DHT22;1338;48.176;11.792;2023-02-11T01:42:15;-3.50;1.00
2657;DHT22;1338;48.176;11.792;2023-02-11T01:44:43;-3.50;1.00
2657;DHT22;1338;48.176;11.792;2023-02-11T01:47:11;-3.60;1.00
2657;DHT22;1338;48.176;11.792;2023-02-11T01:49:42;-3.60;1.00
2657;DHT22;1338;48.176;11.792;2023-02-11T01:52:15;-3.80;1.00
2657;DHT22;1338;48.176;11.792;2023-02-11T01:54:48;-3.80;1.00
2657;DHT22;1338;48.176;11.792;2023-02-11T01:57:37;-3.80;1.00
2657;DHT22;1338;48.176;11.792;2023-02-11T02:00:10;-3.80;1.00
2657;DHT22;1338;48.176;11.792;2023-02-11T02:02:45;-4.00;1.00
2657;DHT22;1338;48.176;11.792;2023-02-11T02:05:21;-4.20;1.00
2657;DHT22;1338;48.176;11.792;2023-02-11T02:07:58;-4.30;1.00
2657;DHT22;1338;48.176;11.792;2023-02-11T02:10:28;-4.50;1.00
2657;DHT22;1338;48.176;11.792;2023-02-11T02:12:57;-4.50;1.00
2657;DHT22;1338;48.176;11.792;2023-02-11T02:15:28;-4.40;1.00
2657;DHT22;1338;48.176;11.792;2023-02-11T02:18:01;-4.40;1.00
2657;DHT22;1338;48.176;11.792;2023-02-11T02:21:00;-4.50;1.00
2657;DHT22;1338;48.176;11.792;2023-02-11T02:23:53;-4.40;1.00
2657;DHT22;1338;48.176;11.792;2023-02-11T02:26:45;-4.60;1.00
2657;DHT22;1338;48.176;11.792;2023-02-11T02:32:38;-4.30;1.00
2657;DHT22;1338;48.176;11.792;2023-02-11T02:35:14;-4.30;1.00
2657;DHT22;1338;48.176;11.792;2023-02-11T02:37:50;-4.30;1.00
2657;DHT22;1338;48.176;11.792;2023-02-11T02:40:28;-4.50;1.00
2657;DHT22;1338;48.176;11.792;2023-02-11T02:42:59;-4.50;1.00
2657;DHT22;1338;48.176;11.792;2023-02-11T02:45:28;-4.40;1.00
2657;DHT22;1338;48.176;11.792;2023-02-11T02:47:57;-4.30;1.00
2657;DHT22;1338;48.176;11.792;2023-02-11T02:50:30;-4.40;1.00
2657;DHT22;1338;48.176;11.792;2023-02-11T02:53:11;-4.10;1.00
2657;DHT22;1338;48.176;11.792;2023-02-11T02:55:51;-4.00;1.00
2657;DHT22;1338;48.176;11.792;2023-02-11T03:01:27;-3.90;1.00
2657;DHT22;1338;48.176;11.792;2023-02-11T03:04:06;-3.80;1.00
2657;DHT22;1338;48.176;11.792;2023-02-11T03:06:42;-3.80;1.00
2657;DHT22;1338;48.176;11.792;2023-02-11T03:09:17;-3.70;1.00
2657;DHT22;1338;48.176;11.792;2023-02-11T03:11:48;-3.70;1.00
2657;DHT22;1338;48.176;11.792;2023-02-11T03:14:18;-3.80;1.00
2657;DHT22;1338;48.176;11.792;2023-02-11T03:16:48;-3.80;1.00
2657;DHT22;1338;48.176;11.792;2023-02-11T03:19:20;-3.70;1.00
2657;DHT22;1338;48.176;11.792;2023-02-11T03:21:50;-3.60;1.00
2657;DHT22;1338;48.176;11.792;2023-02-11T03:24:23;-3.70;1.00
2657;DHT22;1338;48.176;11.792;2023-02-11T03:26:53;-3.70;1.00
2657;DHT22;1338;48.176;11.792;2023-02-11T03:29:31;-3.70;1.00
2657;DHT22;1338;48.176;11.792;2023-02-11T03:32:06;-3.60;1.00
2657;DHT22;1338;48.176;11.792;2023-02-11T03:34:44;-3.70;1.00
2657;DHT22;1338;48.176;11.792;2023-02-11T03:37:17;-3.70;1.00
2657;DHT22;1338;48.176;11.792;2023-02-11T03:39:50;-3.70;1.00
2657;DHT22;1338;48.176;11.792;2023-02-11T03:42:21;-3.70;1.00
2657;DHT22;1338;48.176;11.792;2023-02-11T03:44:55;-3.80;1.00
2657;DHT22;1338;48.176;11.792;2023-02-11T03:47:27;-3.70;1.00
2657;DHT22;1338;48.176;11.792;2023-02-11T03:49:58;-3.80;1.00
2657;DHT22;1338;48.176;11.792;2023-02-11T03:52:28;-3.80;1.00
2657;DHT22;1338;48.176;11.792;2023-02-11T03:54:59;-3.80;1.00
2657;DHT22;1338;48.176;11.792;2023-02-11T03:57:27;-3.80;1.00
2657;DHT22;1338;48.176;11.792;2023-02-11T03:59:57;-3.90;1.00
2657;DHT22;1338;48.176;11.792;2023-02-11T04:02:29;-3.90;1.00
2657;DHT22;1338;48.176;11.792;2023-02-11T04:04:59;-3.80;1.00
2657;DHT22;1338;48.176;11.792;2023-02-11T04:07:28;-3.90;1.00
2657;DHT22;1338;48.176;11.792;2023-02-11T04:09:56;-3.80;1.00
2657;DHT22;1338;48.176;11.792;2023-02-11T04:12:24;-3.80;1.00
2657;DHT22;1338;48.176;11.792;2023-02-11T04:14:52;-3.70;1.00
2657;DHT22;1338;48.176;11.792;2023-02-11T04:17:20;-3.80;1.00
2657;DHT22;1338;48.176;11.792;2023-02-11T04:19:48;-3.80;1.00
2657;DHT22;1338;48.176;11.792;2023-02-11T04:22:18;-3.80;1.00
2657;DHT22;1338;48.176;11.792;2023-02-11T04:24:46;-3.80;1.00
2657;DHT22;1338;48.176;11.792;2023-02-11T04:27:14;-3.90;1.00
2657;DHT22;1338;48.176;11.792;2023-02-11T04:29:42;-4.00;1.00
2657;DHT22;1338;48.176;11.792;2023-02-11T04:32:10;-4.00;1.00
2657;DHT22;1338;48.176;11.792;2023-02-11T04:34:39;-4.00;1.00
2657;DHT22;1338;48.176;11.792;2023-02-11T04:37:07;-3.90;1.00
2657;DHT22;1338;48.176;11.792;2023-02-11T04:39:37;-3.90;1.00
2657;DHT22;1338;48.176;11.792;2023-02-11T04:42:05;-3.90;1.00
2657;DHT22;1338;48.176;11.792;2023-02-11T04:44:33;-4.00;1.00
2657;DHT22;1338;48.176;11.792;2023-02-11T04:47:02;-4.30;1.00
2657;DHT22;1338;48.176;11.792;2023-02-11T04:49:30;-4.40;1.00
2657;DHT22;1338;48.176;11.792;2023-02-11T04:51:58;-4.30;1.00
2657;DHT22;1338;48.176;11.792;2023-02-11T04:54:26;-4.00;1.00
2657;DHT22;1338;48.176;11.792;2023-02-11T04:56:56;-4.00;1.00
2657;DHT22;1338;48.176;11.792;2023-02-11T04:59:24;-4.20;1.00
2657;DHT22;1338;48.176;11.792;2023-02-11T05:01:52;-4.20;1.00
2657;DHT22;1338;48.176;11.792;2023-02-11T05:04:20;-4.20;1.00
2657;DHT22;1338;48.176;11.792;2023-02-11T05:06:48;-4.30;1.00
2657;DHT22;1338;48.176;11.792;2023-02-11T05:09:17;-4.30;1.00
2657;DHT22;1338;48.176;11.792;2023-02-11T05:11:45;-4.20;1.00
2657;DHT22;1338;48.176;11.792;2023-02-11T05:14:14;-4.10;1.00
2657;DHT22;1338;48.176;11.792;2023-02-11T05:16:42;-4.00;1.00
2657;DHT22;1338;48.176;11.792;2023-02-11T05:19:11;-4.00;1.00
2657;DHT22;1338;48.176;11.792;2023-02-11T05:21:39;-3.90;1.00
2657;DHT22;1338;48.176;11.792;2023-02-11T05:24:22;-3.80;1.00
2657;DHT22;1338;48.176;11.792;2023-02-11T05:26:50;-3.80;1.00
2657;DHT22;1338;48.176;11.792;2023-02-11T05:29:20;-3.60;99.90
2657;DHT22;1338;48.176;11.792;2023-02-11T05:31:48;-3.50;99.90
2657;DHT22;1338;48.176;11.792;2023-02-11T05:34:16;-3.50;1.00
2657;DHT22;1338;48.176;11.792;2023-02-11T05:36:44;-3.40;1.00
2657;DHT22;1338;48.176;11.792;2023-02-11T05:39:13;-3.20;99.90
2657;DHT22;1338;48.176;11.792;2023-02-11T05:41:41;-3.10;99.90
2657;DHT22;1338;48.176;11.792;2023-02-11T05:44:09;-3.00;99.90
2657;DHT22;1338;48.176;11.792;2023-02-11T05:46:38;-3.00;99.90
2657;DHT22;1338;48.176;11.792;2023-02-11T05:49:07;-3.10;99.90
2657;DHT22;1338;48.176;11.792;2023-02-11T05:51:35;-3.00;99.90
2657;DHT22;1338;48.176;11.792;2023-02-11T05:54:03;-3.10;99.90
2657;DHT22;1338;48.176;11.792;2023-02-11T05:56:31;-3.10;99.90
2657;DHT22;1338;48.176;11.792;2023-02-11T05:58:59;-3.00;99.90
2657;DHT22;1338;48.176;11.792;2023-02-11T06:01:33;-2.90;99.90
2657;DHT22;1338;48.176;11.792;2023-02-11T06:04:02;-2.90;99.90
2657;DHT22;1338;48.176;11.792;2023-02-11T06:06:31;-2.80;99.90
2657;DHT22;1338;48.176;11.792;2023-02-11T06:08:59;-2.80;99.90
2657;DHT22;1338;48.176;11.792;2023-02-11T06:11:27;-2.70;99.90
2657;DHT22;1338;48.176;11.792;2023-02-11T06:13:55;-2.70;99.90
2657;DHT22;1338;48.176;11.792;2023-02-11T06:16:23;-2.50;99.90
2657;DHT22;1338;48.176;11.792;2023-02-11T06:18:51;-2.50;99.90
2657;DHT22;1338;48.176;11.792;2023-02-11T06:21:21;-2.40;99.90
2657;DHT22;1338;48.176;11.792;2023-02-11T06:23:59;-2.40;99.90
2657;DHT22;1338;48.176;11.792;2023-02-11T06:26:27;-2.40;99.90
2657;DHT22;1338;48.176;11.792;2023-02-11T06:28:55;-2.40;99.90
2657;DHT22;1338;48.176;11.792;2023-02-11T06:31:26;-2.30;99.90
2657;DHT22;1338;48.176;11.792;2023-02-11T06:33:54;-2.30;99.90
2657;DHT22;1338;48.176;11.792;2023-02-11T06:36:24;-2.20;99.90
2657;DHT22;1338;48.176;11.792;2023-02-11T06:38:52;-2.20;99.90
2657;DHT22;1338;48.176;11.792;2023-02-11T06:41:21;-2.10;99.90
2657;DHT22;1338;48.176;11.792;2023-02-11T06:43:51;-2.00;99.90
2657;DHT22;1338;48.176;11.792;2023-02-11T06:46:20;-2.00;99.90
2657;DHT22;1338;48.176;11.792;2023-02-11T06:48:48;-2.00;99.90
2657;DHT22;1338;48.176;11.792;2023-02-11T06:51:16;-2.00;99.90
2657;DHT22;1338;48.176;11.792;2023-02-11T06:53:46;-1.80;99.90
2657;DHT22;1338;48.176;11.792;2023-02-11T06:56:16;-1.90;99.90
2657;DHT22;1338;48.176;11.792;2023-02-11T06:58:45;-1.80;99.90
2657;DHT22;1338;48.176;11.792;2023-02-11T07:01:15;-1.80;99.90
2657;DHT22;1338;48.176;11.792;2023-02-11T07:03:44;-1.70;99.90
2657;DHT22;1338;48.176;11.792;2023-02-11T07:06:14;-1.70;99.90
2657;DHT22;1338;48.176;11.792;2023-02-11T07:08:43;-1.70;99.90
2657;DHT22;1338;48.176;11.792;2023-02-11T07:11:14;-1.70;99.90
2657;DHT22;1338;48.176;11.792;2023-02-11T07:13:42;-1.70;99.90
2657;DHT22;1338;48.176;11.792;2023-02-11T07:16:12;-1.60;99.90
2657;DHT22;1338;48.176;11.792;2023-02-11T07:18:42;-1.60;99.90
2657;DHT22;1338;48.176;11.792;2023-02-11T07:21:12;-1.60;99.90
2657;DHT22;1338;48.176;11.792;2023-02-11T07:23:41;-1.50;99.90
2657;DHT22;1338;48.176;11.792;2023-02-11T07:26:12;-1.40;99.90
2657;DHT22;1338;48.176;11.792;2023-02-11T07:28:41;-1.40;99.90
2657;DHT22;1338;48.176;11.792;2023-02-11T07:31:12;-1.30;99.90
2657;DHT22;1338;48.176;11.792;2023-02-11T07:33:41;-1.30;99.90
2657;DHT22;1338;48.176;11.792;2023-02-11T07:36:10;-1.30;99.90
2657;DHT22;1338;48.176;11.792;2023-02-11T07:38:38;-1.20;99.90
2657;DHT22;1338;48.176;11.792;2023-02-11T07:41:09;-1.20;99.90
2657;DHT22;1338;48.176;11.792;2023-02-11T07:43:38;-1.10;99.90
2657;DHT22;1338;48.176;11.792;2023-02-11T07:46:13;-1.10;99.90
2657;DHT22;1338;48.176;11.792;2023-02-11T07:48:42;-1.10;99.90
2657;DHT22;1338;48.176;11.792;2023-02-11T07:51:16;-1.00;99.90
2657;DHT22;1338;48.176;11.792;2023-02-11T07:53:45;-1.00;99.90
2657;DHT22;1338;48.176;11.792;2023-02-11T07:56:14;-0.90;99.90
2657;DHT22;1338;48.176;11.792;2023-02-11T07:58:43;-0.80;99.90
2657;DHT22;1338;48.176;11.792;2023-02-11T08:01:15;-0.70;99.90
2657;DHT22;1338;48.176;11.792;2023-02-11T08:03:44;-0.70;99.90
2657;DHT22;1338;48.176;11.792;2023-02-11T08:06:14;-0.60;99.90
2657;DHT22;1338;48.176;11.792;2023-02-11T08:08:42;-0.50;99.90
2657;DHT22;1338;48.176;11.792;2023-02-11T08:11:12;-0.40;99.90
2657;DHT22;1338;48.176;11.792;2023-02-11T08:13:41;-0.20;99.90
2657;DHT22;1338;48.176;11.792;2023-02-11T08:16:09;-0.20;99.90
2657;DHT22;1338;48.176;11.792;2023-02-11T08:18:45;-0.10;99.90
2657;DHT22;1338;48.176;11.792;2023-02-11T08:21:13;0.00;99.90
2657;DHT22;1338;48.176;11.792;2023-02-11T08:23:42;0.50;99.90
2657;DHT22;1338;48.176;11.792;2023-02-11T08:26:14;0.20;99.90
2657;DHT22;1338;48.176;11.792;2023-02-11T08:28:45;0.30;99.90
2657;DHT22;1338;48.176;11.792;2023-02-11T08:31:15;0.40;99.90
2657;DHT22;1338;48.176;11.792;2023-02-11T08:33:45;0.60;99.90
2657;DHT22;1338;48.176;11.792;2023-02-11T08:36:15;0.70;99.90
2657;DHT22;1338;48.176;11.792;2023-02-11T08:38:44;0.80;99.90
2657;DHT22;1338;48.176;11.792;2023-02-11T08:41:14;0.90;99.90
2657;DHT22;1338;48.176;11.792;2023-02-11T08:43:43;1.10;99.90
2657;DHT22;1338;48.176;11.792;2023-02-11T08:46:13;1.10;99.90
2657;DHT22;1338;48.176;11.792;2023-02-11T08:48:41;1.30;99.90
2657;DHT22;1338;48.176;11.792;2023-02-11T08:51:14;1.30;99.90
2657;DHT22;1338;48.176;11.792;2023-02-11T08:53:43;1.40;99.90
2657;DHT22;1338;48.176;11.792;2023-02-11T08:56:13;1.60;99.90
2657;DHT22;1338;48.176;11.792;2023-02-11T08:58:41;1.70;99.90
2657;DHT22;1338;48.176;11.792;2023-02-11T09:01:10;1.60;99.90
2657;DHT22;1338;48.176;11.792;2023-02-11T09:03:38;1.70;99.90
2657;DHT22;1338;48.176;11.792;2023-02-11T09:06:08;1.80;99.90
2657;DHT22;1338;48.176;11.792;2023-02-11T09:08:39;1.80;99.90
2657;DHT22;1338;48.176;11.792;2023-02-11T09:11:10;1.90;99.90
2657;DHT22;1338;48.176;11.792;2023-02-11T09:13:40;1.90;99.90
2657;DHT22;1338;48.176;11.792;2023-02-11T09:16:15;2.00;99.90
2657;DHT22;1338;48.176;11.792;2023-02-11T09:18:44;2.10;99.90
2657;DHT22;1338;48.176;11.792;2023-02-11T09:21:13;2.10;99.90
2657;DHT22;1338;48.176;11.792;2023-02-11T09:23:43;2.20;99.90
2657;DHT22;1338;48.176;11.792;2023-02-11T09:26:17;2.20;99.90
2657;DHT22;1338;48.176;11.792;2023-02-11T09:28:46;2.30;99.90
2657;DHT22;1338;48.176;11.792;2023-02-11T09:31:16;2.30;99.90
2657;DHT22;1338;48.176;11.792;2023-02-11T09:33:46;2.20;99.90
2657;DHT22;1338;48.176;11.792;2023-02-11T09:36:18;2.20;99.90
2657;DHT22;1338;48.176;11.792;2023-02-11T09:38:48;2.10;99.90
2657;DHT22;1338;48.176;11.792;2023-02-11T09:41:36;2.10;99.90
2657;DHT22;1338;48.176;11.792;2023-02-11T09:44:07;2.20;99.90
2657;DHT22;1338;48.176;11.792;2023-02-11T09:46:40;2.30;99.90
2657;DHT22;1338;48.176;11.792;2023-02-11T09:49:16;2.40;99.90
2657;DHT22;1338;48.176;11.792;2023-02-11T09:51:49;2.50;99.90
2657;DHT22;1338;48.176;11.792;2023-02-11T09:54:25;2.70;99.90
2657;DHT22;1338;48.176;11.792;2023-02-11T09:56:53;2.70;99.90
2657;DHT22;1338;48.176;11.792;2023-02-11T09:59:21;2.70;99.90
2657;DHT22;1338;48.176;11.792;2023-02-11T10:01:54;2.80;99.90
2657;DHT22;1338;48.176;11.792;2023-02-11T10:04:38;2.70;99.90
2657;DHT22;1338;48.176;11.792;2023-02-11T10:07:16;2.50;99.90
2657;DHT22;1338;48.176;11.792;2023-02-11T10:10:02;2.70;99.90
2657;DHT22;1338;48.176;11.792;2023-02-11T10:12:53;2.90;99.90
2657;DHT22;1338;48.176;11.792;2023-02-11T10:15:33;3.20;99.90
2657;DHT22;1338;48.176;11.792;2023-02-11T10:18:17;3.30;99.90
2657;DHT22;1338;48.176;11.792;2023-02-11T10:20:59;3.50;99.90
2657;DHT22;1338;48.176;11.792;2023-02-11T10:23:33;3.70;99.90
2657;DHT22;1338;48.176;11.792;2023-02-11T10:26:09;3.70;99.90
2657;DHT22;1338;48.176;11.792;2023-02-11T10:28:41;3.70;99.90
2657;DHT22;1338;48.176;11.792;2023-02-11T10:31:15;3.70;99.90
2657;DHT22;1338;48.176;11.792;2023-02-11T10:33:48;3.80;99.90
2657;DHT22;1338;48.176;11.792;2023-02-11T10:36:17;3.70;99.90
2657;DHT22;1338;48.176;11.792;2023-02-11T10:38:46;3.70;99.90
2657;DHT22;1338;48.176;11.792;2023-02-11T10:41:19;3.80;99.90
2657;DHT22;1338;48.176;11.792;2023-02-11T10:43:48;4.00;99.90
2657;DHT22;1338;48.176;11.792;2023-02-11T10:46:20;4.00;99.90
2657;DHT22;1338;48.176;11.792;2023-02-11T10:48:50;4.00;99.90
2657;DHT22;1338;48.176;11.792;2023-02-11T10:51:21;3.80;99.90
2657;DHT22;1338;48.176;11.792;2023-02-11T10:53:52;4.00;99.90
2657;DHT22;1338;48.176;11.792;2023-02-11T10:56:44;4.40;99.90
2657;DHT22;1338;48.176;11.792;2023-02-11T10:59:18;4.90;99.90
2657;DHT22;1338;48.176;11.792;2023-02-11T11:01:49;4.70;99.90
2657;DHT22;1338;48.176;11.792;2023-02-11T11:04:33;4.60;98.00
2657;DHT22;1338;48.176;11.792;2023-02-11T11:07:17;4.60;99.60
2657;DHT22;1338;48.176;11.792;2023-02-11T11:09:50;4.60;99.70
2657;DHT22;1338;48.176;11.792;2023-02-11T11:12:37;4.80;96.40
2657;DHT22;1338;48.176;11.792;2023-02-11T11:15:16;5.00;96.80
2657;DHT22;1338;48.176;11.792;2023-02-11T11:17:46;5.00;98.00
2657;DHT22;1338;48.176;11.792;2023-02-11T11:20:23;4.80;94.50
2657;DHT22;1338;48.176;11.792;2023-02-11T11:23:08;5.20;95.00
2657;DHT22;1338;48.176;11.792;2023-02-11T11:25:40;5.00;91.80
2657;DHT22;1338;48.176;11.792;2023-02-11T11:28:20;4.80;90.30
2657;DHT22;1338;48.176;11.792;2023-02-11T11:30:51;4.80;88.60
2657;DHT22;1338;48.176;11.792;2023-02-11T11:33:23;5.00;90.60
2657;DHT22;1338;48.176;11.792;2023-02-11T11:36:00;5.00;88.40
2657;DHT22;1338;48.176;11.792;2023-02-11T11:38:31;4.80;82.10
2657;DHT22;1338;48.176;11.792;2023-02-11T11:41:13;4.70;79.20
2657;DHT22;1338;48.176;11.792;2023-02-11T11:43:55;5.30;88.00
2657;DHT22;1338;48.176;11.792;2023-02-11T11:46:26;5.20;74.20
2657;DHT22;1338;48.176;11.792;2023-02-11T11:49:00;5.40;73.80
2657;DHT22;1338;48.176;11.792;2023-02-11T11:51:31;5.70;73.80
2657;DHT22;1338;48.176;11.792;2023-02-11T11:54:03;5.70;65.30
2657;DHT22;1338;48.176;11.792;2023-02-11T11:56:36;5.80;62.40
2657;DHT22;1338;48.176;11.792;2023-02-11T11:59:11;5.50;56.20
2657;DHT22;1338;48.176;11.792;2023-02-11T12:01:56;5.40;59.40
2657;DHT22;1338;48.176;11.792;2023-02-11T12:04:53;5.40;56.70
2657;DHT22;1338;48.176;11.792;2023-02-11T12:07:33;5.50;65.50
2657;DHT22;1338;48.176;11.792;2023-02-11T12:10:26;5.60;69.80
2657;DHT22;1338;48.176;11.792;2023-02-11T12:13:04;5.60;65.80
2657;DHT22;1338;48.176;11.792;2023-02-11T12:15:44;5.50;61.50
2657;DHT22;1338;48.176;11.792;2023-02-11T12:21:27;5.40;60.10
2657;DHT22;1338;48.176;11.792;2023-02-11T12:24:08;5.50;58.60
2657;DHT22;1338;48.176;11.792;2023-02-11T12:26:46;5.50;56.10
2657;DHT22;1338;48.176;11.792;2023-02-11T12:29:26;5.60;63.00
2657;DHT22;1338;48.176;11.792;2023-02-11T12:32:12;5.60;58.80
2657;DHT22;1338;48.176;11.792;2023-02-11T12:34:58;5.60;54.40
2657;DHT22;1338;48.176;11.792;2023-02-11T12:37:36;5.80;53.30
2657;DHT22;1338;48.176;11.792;2023-02-11T12:40:15;6.20;46.50
2657;DHT22;1338;48.176;11.792;2023-02-11T12:42:54;6.00;33.20
2657;DHT22;1338;48.176;11.792;2023-02-11T12:45:57;6.10;42.20
2657;DHT22;1338;48.176;11.792;2023-02-11T12:48:47;6.00;31.70
2657;DHT22;1338;48.176;11.792;2023-02-11T12:51:29;5.90;26.00
2657;DHT22;1338;48.176;11.792;2023-02-11T12:54:18;6.10;27.00
2657;DHT22;1338;48.176;11.792;2023-02-11T12:56:51;6.10;28.50
2657;DHT22;1338;48.176;11.792;2023-02-11T12:59:32;6.20;26.00
2657;DHT22;1338;48.176;11.792;2023-02-11T13:02:10;6.00;23.00
2657;DHT22;1338;48.176;11.792;2023-02-11T13:04:45;6.20;20.60
2657;DHT22;1338;48.176;11.792;2023-02-11T13:07:18;5.90;12.20
2657;DHT22;1338;48.176;11.792;2023-02-11T13:09:51;5.90;16.90
2657;DHT22;1338;48.176;11.792;2023-02-11T13:12:22;5.70;18.80
2657;DHT22;1338;48.176;11.792;2023-02-11T13:15:12;5.80;29.50
2657;DHT22;1338;48.176;11.792;2023-02-11T13:17:47;5.50;30.60
2657;DHT22;1338;48.176;11.792;2023-02-11T13:20:29;5.50;26.70
2657;DHT22;1338;48.176;11.792;2023-02-11T13:23:06;6.00;36.70
2657;DHT22;1338;48.176;11.792;2023-02-11T13:25:40;6.90;34.20
2657;DHT22;1338;48.176;11.792;2023-02-11T13:28:21;7.40;21.40
2657;DHT22;1338;48.176;11.792;2023-02-11T13:30:51;8.20;15.00
2657;DHT22;1338;48.176;11.792;2023-02-11T13:33:33;8.30;10.90
2657;DHT22;1338;48.176;11.792;2023-02-11T13:36:20;7.90;7.00
2657;DHT22;1338;48.176;11.792;2023-02-11T13:39:01;8.10;1.00
2657;DHT22;1338;48.176;11.792;2023-02-11T13:41:33;8.30;7.10
2657;DHT22;1338;48.176;11.792;2023-02-11T13:44:25;7.00;1.00
2657;DHT22;1338;48.176;11.792;2023-02-11T13:46:57;6.90;1.00
2657;DHT22;1338;48.176;11.792;2023-02-11T13:49:33;7.20;7.40
2657;DHT22;1338;48.176;11.792;2023-02-11T13:52:10;7.20;7.30
2657;DHT22;1338;48.176;11.792;2023-02-11T13:54:46;6.80;4.40
2657;DHT22;1338;48.176;11.792;2023-02-11T13:57:31;6.90;7.60
2657;DHT22;1338;48.176;11.792;2023-02-11T14:00:03;6.70;3.40
2657;DHT22;1338;48.176;11.792;2023-02-11T14:02:34;6.50;1.00
2657;DHT22;1338;48.176;11.792;2023-02-11T14:05:29;6.90;4.40
2657;DHT22;1338;48.176;11.792;2023-02-11T14:08:26;6.90;5.10
2657;DHT22;1338;48.176;11.792;2023-02-11T14:11:48;6.90;5.70
2657;DHT22;1338;48.176;11.792;2023-02-11T14:14:22;6.80;11.40
2657;DHT22;1338;48.176;11.792;2023-02-11T14:17:17;6.80;22.20
2657;DHT22;1338;48.176;11.792;2023-02-11T14:19:47;6.60;14.30
2657;DHT22;1338;48.176;11.792;2023-02-11T14:22:18;6.60;13.70
2657;DHT22;1338;48.176;11.792;2023-02-11T14:24:54;6.50;9.60
2657;DHT22;1338;48.176;11.792;2023-02-11T14:27:27;6.60;15.30
2657;DHT22;1338;48.176;11.792;2023-02-11T14:30:18;6.60;12.10
2657;DHT22;1338;48.176;11.792;2023-02-11T14:33:06;6.60;13.60
2657;DHT22;1338;48.176;11.792;2023-02-11T14:35:47;6.50;19.60
2657;DHT22;1338;48.176;11.792;2023-02-11T14:38:23;6.50;23.20
2657;DHT22;1338;48.176;11.792;2023-02-11T14:41:00;6.60;30.10
2657;DHT22;1338;48.176;11.792;2023-02-11T14:43:36;6.50;33.20
2657;DHT22;1338;48.176;11.792;2023-02-11T14:46:05;6.40;33.50
2657;DHT22;1338;48.176;11.792;2023-02-11T14:48:35;6.50;40.00
2657;DHT22;1338;48.176;11.792;2023-02-11T14:51:07;6.40;38.10
2657;DHT22;1338;48.176;11.792;2023-02-11T14:53:37;6.40;47.40
2657;DHT22;1338;48.176;11.792;2023-02-11T14:56:18;6.40;42.00
2657;DHT22;1338;48.176;11.792;2023-02-11T14:58:48;6.40;48.40
2657;DHT22;1338;48.176;11.792;2023-02-11T15:01:28;6.50;49.00
2657;DHT22;1338;48.176;11.792;2023-02-11T15:03:58;6.40;49.70
2657;DHT22;1338;48.176;11.792;2023-02-11T15:06:29;6.40;50.00
2657;DHT22;1338;48.176;11.792;2023-02-11T15:09:01;6.40;53.90
2657;DHT22;1338;48.176;11.792;2023-02-11T15:11:36;6.20;56.30
2657;DHT22;1338;48.176;11.792;2023-02-11T15:14:08;6.10;60.10
2657;DHT22;1338;48.176;11.792;2023-02-11T15:16:42;6.10;59.00
2657;DHT22;1338;48.176;11.792;2023-02-11T15:19:20;5.90;66.70
2657;DHT22;1338;48.176;11.792;2023-02-11T15:21:50;6.00;65.20
2657;DHT22;1338;48.176;11.792;2023-02-11T15:24:24;6.00;62.80
2657;DHT22;1338;48.176;11.792;2023-02-11T15:26:59;5.90;66.30
2657;DHT22;1338;48.176;11.792;2023-02-11T15:29:34;5.90;70.70
2657;DHT22;1338;48.176;11.792;2023-02-11T15:32:04;6.10;72.10
2657;DHT22;1338;48.176;11.792;2023-02-11T15:34:33;6.30;65.60
2657;DHT22;1338;48.176;11.792;2023-02-11T15:37:03;6.40;62.10
2657;DHT22;1338;48.176;11.792;2023-02-11T15:39:33;6.60;60.60
2657;DHT22;1338;48.176;11.792;2023-02-11T15:42:25;6.80;60.30
2657;DHT22;1338;48.176;11.792;2023-02-11T15:45:09;7.10;63.50
2657;DHT22;1338;48.176;11.792;2023-02-11T15:47:39;6.90;63.80
2657;DHT22;1338;48.176;11.792;2023-02-11T15:50:19;6.80;66.80
2657;DHT22;1338;48.176;11.792;2023-02-11T15:52:48;6.60;69.10
2657;DHT22;1338;48.176;11.792;2023-02-11T15:55:17;6.50;69.30
2657;DHT22;1338;48.176;11.792;2023-02-11T15:57:51;6.40;72.50
2657;DHT22;1338;48.176;11.792;2023-02-11T16:00:22;6.40;77.20
2657;DHT22;1338;48.176;11.792;2023-02-11T16:02:51;6.50;83.00
2657;DHT22;1338;48.176;11.792;2023-02-11T16:05:27;6.80;90.40
2657;DHT22;1338;48.176;11.792;2023-02-11T16:07:56;6.80;88.70
2657;DHT22;1338;48.176;11.792;2023-02-11T16:10:27;6.80;87.70
2657;DHT22;1338;48.176;11.792;2023-02-11T16:13:14;6.50;88.50
2657;DHT22;1338;48.176;11.792;2023-02-11T16:15:47;6.20;91.00
2657;DHT22;1338;48.176;11.792;2023-02-11T16:18:33;6.00;92.10
2657;DHT22;1338;48.176;11.792;2023-02-11T16:21:12;5.70;92.60
2657;DHT22;1338;48.176;11.792;2023-02-11T16:23:42;5.60;94.00
2657;DHT22;1338;48.176;11.792;2023-02-11T16:26:21;5.50;94.90
2657;DHT22;1338;48.176;11.792;2023-02-11T16:29:00;5.40;95.80
2657;DHT22;1338;48.176;11.792;2023-02-11T16:31:32;5.30;97.20
2657;DHT22;1338;48.176;11.792;2023-02-11T16:34:00;5.20;98.90
2657;DHT22;1338;48.176;11.792;2023-02-11T16:36:29;5.00;99.90
2657;DHT22;1338;48.176;11.792;2023-02-11T16:38:57;5.00;99.90
2657;DHT22;1338;48.176;11.792;2023-02-11T16:41:25;5.40;99.90
2657;DHT22;1338;48.176;11.792;2023-02-11T16:43:55;5.60;99.90
2657;DHT22;1338;48.176;11.792;2023-02-11T16:46:24;5.20;99.90